sensor_id;sensor_type;location;lat;lon;timestamp;P1;durP1;ratioP1;P2;durP2;ratioP2
18623;SDS011;9441;51.420;7.036;2024-02-15T00:00:54;28.17;;;12.70;;
18623;SDS011;9441;51.420;7.036;2024-02-15T00:02:40;34.83;;;12.93;;
18623;SDS011;9441;51.420;7.036;2024-02-15T00:04:14;42.47;;;13.37;;
18623;SDS011;9441;51.420;7.036;2024-02-15T00:05:19;29.93;;;11.63;;
18623;SDS011;9441;51.420;7.036;2024-02-15T00:06:23;40.57;;;13.23;;
18623;SDS011;9441;51.420;7.036;2024-02-15T00:07:27;34.00;;;13.00;;
18623;SDS011;9441;51.420;7.036;2024-02-15T00:08:29;33.00;;;12.70;;
18623;SDS011;9441;51.420;7.036;2024-02-15T00:09:34;43.23;;;13.90;;
18623;SDS011;9441;51.420;7.036;2024-02-15T00:10:35;36.53;;;14.07;;
18623;SDS011;9441;51.420;7.036;2024-02-15T00:11:37;38.57;;;13.63;;
18623;SDS011;9441;51.420;7.036;2024-02-15T00:12:39;35.67;;;12.93;;
18623;SDS011;9441;51.420;7.036;2024-02-15T00:13:41;41.37;;;14.33;;
18623;SDS011;9441;51.420;7.036;2024-02-15T00:14:44;34.93;;;13.13;;
18623;SDS011;9441;51.420;7.036;2024-02-15T00:15:46;37.17;;;13.70;;
18623;SDS011;9441;51.420;7.036;2024-02-15T00:16:48;32.77;;;12.73;;
18623;SDS011;9441;51.420;7.036;2024-02-15T00:17:50;32.67;;;12.80;;
18623;SDS011;9441;51.420;7.036;2024-02-15T00:18:52;44.50;;;13.60;;
18623;SDS011;9441;51.420;7.036;2024-02-15T00:19:55;41.13;;;13.23;;
18623;SDS011;9441;51.420;7.036;2024-02-15T00:20:56;44.20;;;14.50;;
18623;SDS011;9441;51.420;7.036;2024-02-15T00:22:01;41.70;;;13.27;;
18623;SDS011;9441;51.420;7.036;2024-02-15T00:23:02;39.53;;;13.23;;
18623;SDS011;9441;51.420;7.036;2024-02-15T00:24:04;44.73;;;13.53;;
18623;SDS011;9441;51.420;7.036;2024-02-15T00:25:06;35.97;;;12.93;;
18623;SDS011;9441;51.420;7.036;2024-02-15T00:26:09;43.00;;;14.10;;
18623;SDS011;9441;51.420;7.036;2024-02-15T00:27:12;46.23;;;14.40;;
18623;SDS011;9441;51.420;7.036;2024-02-15T00:28:13;47.20;;;15.37;;
18623;SDS011;9441;51.420;7.036;2024-02-15T00:29:15;48.77;;;14.47;;
18623;SDS011;9441;51.420;7.036;2024-02-15T00:30:16;42.93;;;15.37;;
18623;SDS011;9441;51.420;7.036;2024-02-15T00:31:18;38.17;;;15.20;;
18623;SDS011;9441;51.420;7.036;2024-02-15T00:32:19;42.57;;;15.50;;
18623;SDS011;9441;51.420;7.036;2024-02-15T00:33:21;42.17;;;15.73;;
18623;SDS011;9441;51.420;7.036;2024-02-15T00:34:22;38.70;;;15.33;;
18623;SDS011;9441;51.420;7.036;2024-02-15T00:35:26;37.20;;;15.27;;
18623;SDS011;9441;51.420;7.036;2024-02-15T00:36:27;45.80;;;16.30;;
18623;SDS011;9441;51.420;7.036;2024-02-15T00:37:31;39.93;;;15.80;;
18623;SDS011;9441;51.420;7.036;2024-02-15T00:38:33;40.73;;;15.63;;
18623;SDS011;9441;51.420;7.036;2024-02-15T00:39:35;50.07;;;15.20;;
18623;SDS011;9441;51.420;7.036;2024-02-15T00:40:37;42.60;;;15.17;;
18623;SDS011;9441;51.420;7.036;2024-02-15T00:41:38;40.13;;;15.53;;
18623;SDS011;9441;51.420;7.036;2024-02-15T00:42:41;47.47;;;16.40;;
18623;SDS011;9441;51.420;7.036;2024-02-15T00:43:43;39.93;;;15.70;;
18623;SDS011;9441;51.420;7.036;2024-02-15T00:44:44;48.33;;;15.33;;
18623;SDS011;9441;51.420;7.036;2024-02-15T00:45:45;48.70;;;15.67;;
18623;SDS011;9441;51.420;7.036;2024-02-15T00:46:48;44.27;;;16.03;;
18623;SDS011;9441;51.420;7.036;2024-02-15T00:47:49;49.07;;;16.73;;
18623;SDS011;9441;51.420;7.036;2024-02-15T00:48:51;49.97;;;16.10;;
18623;SDS011;9441;51.420;7.036;2024-02-15T00:49:52;47.67;;;16.73;;
18623;SDS011;9441;51.420;7.036;2024-02-15T00:50:53;45.17;;;16.17;;
18623;SDS011;9441;51.420;7.036;2024-02-15T00:51:55;42.30;;;15.07;;
18623;SDS011;9441;51.420;7.036;2024-02-15T00:52:57;39.10;;;15.47;;
18623;SDS011;9441;51.420;7.036;2024-02-15T00:53:59;43.47;;;16.07;;
18623;SDS011;9441;51.420;7.036;2024-02-15T00:55:01;44.67;;;15.80;;
18623;SDS011;9441;51.420;7.036;2024-02-15T00:56:04;39.77;;;15.53;;
18623;SDS011;9441;51.420;7.036;2024-02-15T00:57:06;38.97;;;16.27;;
18623;SDS011;9441;51.420;7.036;2024-02-15T00:58:08;48.13;;;16.50;;
18623;SDS011;9441;51.420;7.036;2024-02-15T00:59:09;49.37;;;15.80;;
18623;SDS011;9441;51.420;7.036;2024-02-15T01:00:11;39.30;;;15.60;;
18623;SDS011;9441;51.420;7.036;2024-02-15T01:01:13;53.87;;;15.97;;
18623;SDS011;9441;51.420;7.036;2024-02-15T01:02:15;57.70;;;17.90;;
18623;SDS011;9441;51.420;7.036;2024-02-15T01:03:16;43.57;;;15.83;;
18623;SDS011;9441;51.420;7.036;2024-02-15T01:04:18;47.10;;;16.27;;
18623;SDS011;9441;51.420;7.036;2024-02-15T01:05:19;58.20;;;16.17;;
18623;SDS011;9441;51.420;7.036;2024-02-15T01:06:22;57.70;;;16.50;;
18623;SDS011;9441;51.420;7.036;2024-02-15T01:07:23;50.13;;;16.07;;
18623;SDS011;9441;51.420;7.036;2024-02-15T01:08:29;45.67;;;15.37;;
18623;SDS011;9441;51.420;7.036;2024-02-15T01:09:30;46.37;;;16.20;;
18623;SDS011;9441;51.420;7.036;2024-02-15T01:10:32;35.03;;;15.30;;
18623;SDS011;9441;51.420;7.036;2024-02-15T01:11:34;46.27;;;15.67;;
18623;SDS011;9441;51.420;7.036;2024-02-15T01:12:36;53.27;;;15.73;;
18623;SDS011;9441;51.420;7.036;2024-02-15T01:13:38;52.93;;;16.27;;
18623;SDS011;9441;51.420;7.036;2024-02-15T01:14:38;48.67;;;16.43;;
18623;SDS011;9441;51.420;7.036;2024-02-15T01:15:40;45.27;;;15.70;;
18623;SDS011;9441;51.420;7.036;2024-02-15T01:16:41;55.00;;;16.17;;
18623;SDS011;9441;51.420;7.036;2024-02-15T01:17:44;44.37;;;16.37;;
18623;SDS011;9441;51.420;7.036;2024-02-15T01:18:45;44.93;;;15.43;;
18623;SDS011;9441;51.420;7.036;2024-02-15T01:19:47;47.43;;;16.97;;
18623;SDS011;9441;51.420;7.036;2024-02-15T01:20:48;43.70;;;15.83;;
18623;SDS011;9441;51.420;7.036;2024-02-15T01:21:51;51.23;;;16.33;;
18623;SDS011;9441;51.420;7.036;2024-02-15T01:22:53;52.50;;;16.07;;
18623;SDS011;9441;51.420;7.036;2024-02-15T01:23:57;40.93;;;16.03;;
18623;SDS011;9441;51.420;7.036;2024-02-15T01:25:00;52.03;;;15.80;;
18623;SDS011;9441;51.420;7.036;2024-02-15T01:26:02;50.07;;;16.27;;
18623;SDS011;9441;51.420;7.036;2024-02-15T01:27:05;54.00;;;16.93;;
18623;SDS011;9441;51.420;7.036;2024-02-15T01:28:07;52.13;;;15.97;;
18623;SDS011;9441;51.420;7.036;2024-02-15T01:29:08;46.17;;;16.57;;
18623;SDS011;9441;51.420;7.036;2024-02-15T01:30:12;53.57;;;16.47;;
18623;SDS011;9441;51.420;7.036;2024-02-15T01:31:13;65.60;;;16.50;;
18623;SDS011;9441;51.420;7.036;2024-02-15T01:32:17;43.10;;;16.20;;
18623;SDS011;9441;51.420;7.036;2024-02-15T01:33:18;52.27;;;17.20;;
18623;SDS011;9441;51.420;7.036;2024-02-15T01:34:20;50.13;;;16.57;;
18623;SDS011;9441;51.420;7.036;2024-02-15T01:35:21;54.83;;;17.23;;
18623;SDS011;9441;51.420;7.036;2024-02-15T01:36:23;65.83;;;18.17;;
18623;SDS011;9441;51.420;7.036;2024-02-15T01:37:25;46.43;;;16.67;;
18623;SDS011;9441;51.420;7.036;2024-02-15T01:38:27;52.73;;;16.87;;
18623;SDS011;9441;51.420;7.036;2024-02-15T01:39:29;51.40;;;16.90;;
18623;SDS011;9441;51.420;7.036;2024-02-15T01:40:30;51.20;;;16.47;;
18623;SDS011;9441;51.420;7.036;2024-02-15T01:41:32;44.63;;;16.60;;
18623;SDS011;9441;51.420;7.036;2024-02-15T01:42:33;50.47;;;16.33;;
18623;SDS011;9441;51.420;7.036;2024-02-15T01:43:36;58.70;;;16.37;;
18623;SDS011;9441;51.420;7.036;2024-02-15T01:44:37;51.90;;;16.37;;
18623;SDS011;9441;51.420;7.036;2024-02-15T01:45:39;59.47;;;16.63;;
18623;SDS011;9441;51.420;7.036;2024-02-15T01:46:41;56.03;;;16.83;;
18623;SDS011;9441;51.420;7.036;2024-02-15T01:47:43;46.40;;;15.33;;
18623;SDS011;9441;51.420;7.036;2024-02-15T01:48:45;55.33;;;16.67;;
18623;SDS011;9441;51.420;7.036;2024-02-15T01:49:46;53.27;;;16.30;;
18623;SDS011;9441;51.420;7.036;2024-02-15T01:50:49;58.40;;;16.73;;
18623;SDS011;9441;51.420;7.036;2024-02-15T01:51:52;51.00;;;16.87;;
18623;SDS011;9441;51.420;7.036;2024-02-15T01:52:57;52.20;;;16.07;;
18623;SDS011;9441;51.420;7.036;2024-02-15T01:53:59;48.83;;;16.70;;
18623;SDS011;9441;51.420;7.036;2024-02-15T01:55:03;43.33;;;15.43;;
18623;SDS011;9441;51.420;7.036;2024-02-15T01:56:09;56.37;;;16.47;;
18623;SDS011;9441;51.420;7.036;2024-02-15T01:57:13;62.20;;;16.07;;
18623;SDS011;9441;51.420;7.036;2024-02-15T01:58:15;49.17;;;15.03;;
18623;SDS011;9441;51.420;7.036;2024-02-15T01:59:21;50.13;;;16.13;;
18623;SDS011;9441;51.420;7.036;2024-02-15T02:00:23;42.80;;;15.60;;
18623;SDS011;9441;51.420;7.036;2024-02-15T02:01:29;40.90;;;15.20;;
18623;SDS011;9441;51.420;7.036;2024-02-15T02:02:32;45.27;;;15.83;;
18623;SDS011;9441;51.420;7.036;2024-02-15T02:03:36;44.40;;;15.10;;
18623;SDS011;9441;51.420;7.036;2024-02-15T02:04:39;48.97;;;15.67;;
18623;SDS011;9441;51.420;7.036;2024-02-15T02:05:42;54.33;;;16.10;;
18623;SDS011;9441;51.420;7.036;2024-02-15T02:06:44;42.57;;;15.10;;
18623;SDS011;9441;51.420;7.036;2024-02-15T02:07:45;45.20;;;14.70;;
18623;SDS011;9441;51.420;7.036;2024-02-15T02:08:46;45.87;;;15.57;;
18623;SDS011;9441;51.420;7.036;2024-02-15T02:09:48;46.03;;;15.83;;
18623;SDS011;9441;51.420;7.036;2024-02-15T02:10:51;48.73;;;15.70;;
18623;SDS011;9441;51.420;7.036;2024-02-15T02:11:53;43.37;;;15.00;;
18623;SDS011;9441;51.420;7.036;2024-02-15T02:12:55;54.97;;;14.43;;
18623;SDS011;9441;51.420;7.036;2024-02-15T02:13:57;39.63;;;14.37;;
18623;SDS011;9441;51.420;7.036;2024-02-15T02:14:58;46.60;;;14.90;;
18623;SDS011;9441;51.420;7.036;2024-02-15T02:16:00;37.63;;;14.40;;
18623;SDS011;9441;51.420;7.036;2024-02-15T02:17:10;45.43;;;14.00;;
18623;SDS011;9441;51.420;7.036;2024-02-15T02:18:13;38.83;;;13.40;;
18623;SDS011;9441;51.420;7.036;2024-02-15T02:19:14;46.37;;;13.97;;
18623;SDS011;9441;51.420;7.036;2024-02-15T02:20:18;41.03;;;12.97;;
18623;SDS011;9441;51.420;7.036;2024-02-15T02:21:19;37.63;;;13.70;;
18623;SDS011;9441;51.420;7.036;2024-02-15T02:22:21;46.23;;;14.40;;
18623;SDS011;9441;51.420;7.036;2024-02-15T02:23:25;50.50;;;14.60;;
18623;SDS011;9441;51.420;7.036;2024-02-15T02:24:27;41.90;;;13.00;;
18623;SDS011;9441;51.420;7.036;2024-02-15T02:25:31;39.67;;;13.90;;
18623;SDS011;9441;51.420;7.036;2024-02-15T02:26:34;47.40;;;13.30;;
18623;SDS011;9441;51.420;7.036;2024-02-15T02:27:35;39.60;;;13.40;;
18623;SDS011;9441;51.420;7.036;2024-02-15T02:28:38;39.90;;;13.10;;
18623;SDS011;9441;51.420;7.036;2024-02-15T02:29:41;50.50;;;13.63;;
18623;SDS011;9441;51.420;7.036;2024-02-15T02:30:45;44.50;;;13.97;;
18623;SDS011;9441;51.420;7.036;2024-02-15T02:31:46;43.70;;;13.67;;
18623;SDS011;9441;51.420;7.036;2024-02-15T02:32:49;46.67;;;12.50;;
18623;SDS011;9441;51.420;7.036;2024-02-15T02:33:51;38.20;;;12.77;;
18623;SDS011;9441;51.420;7.036;2024-02-15T02:34:56;38.77;;;13.03;;
18623;SDS011;9441;51.420;7.036;2024-02-15T02:35:57;30.73;;;11.27;;
18623;SDS011;9441;51.420;7.036;2024-02-15T02:36:59;33.47;;;11.87;;
18623;SDS011;9441;51.420;7.036;2024-02-15T02:38:03;36.10;;;12.33;;
18623;SDS011;9441;51.420;7.036;2024-02-15T02:39:04;48.63;;;12.87;;
18623;SDS011;9441;51.420;7.036;2024-02-15T02:40:08;41.60;;;11.97;;
18623;SDS011;9441;51.420;7.036;2024-02-15T02:41:11;40.03;;;12.20;;
18623;SDS011;9441;51.420;7.036;2024-02-15T02:42:12;36.47;;;12.57;;
18623;SDS011;9441;51.420;7.036;2024-02-15T02:43:14;30.90;;;11.57;;
18623;SDS011;9441;51.420;7.036;2024-02-15T02:44:15;43.53;;;11.97;;
18623;SDS011;9441;51.420;7.036;2024-02-15T02:45:18;37.27;;;12.20;;
18623;SDS011;9441;51.420;7.036;2024-02-15T02:46:20;33.07;;;12.20;;
18623;SDS011;9441;51.420;7.036;2024-02-15T02:47:21;34.53;;;11.03;;
18623;SDS011;9441;51.420;7.036;2024-02-15T02:48:23;34.43;;;11.27;;
18623;SDS011;9441;51.420;7.036;2024-02-15T02:49:25;41.63;;;12.10;;
18623;SDS011;9441;51.420;7.036;2024-02-15T02:50:27;35.23;;;11.67;;
18623;SDS011;9441;51.420;7.036;2024-02-15T02:51:28;36.33;;;11.10;;
18623;SDS011;9441;51.420;7.036;2024-02-15T02:52:30;34.30;;;10.67;;
18623;SDS011;9441;51.420;7.036;2024-02-15T02:53:31;30.40;;;10.37;;
18623;SDS011;9441;51.420;7.036;2024-02-15T02:54:33;34.07;;;10.70;;
18623;SDS011;9441;51.420;7.036;2024-02-15T02:55:34;25.43;;;10.93;;
18623;SDS011;9441;51.420;7.036;2024-02-15T02:56:38;37.00;;;11.43;;
18623;SDS011;9441;51.420;7.036;2024-02-15T02:57:39;37.37;;;11.23;;
18623;SDS011;9441;51.420;7.036;2024-02-15T02:58:41;36.07;;;11.50;;
18623;SDS011;9441;51.420;7.036;2024-02-15T02:59:42;33.20;;;10.13;;
18623;SDS011;9441;51.420;7.036;2024-02-15T03:00:45;40.27;;;11.07;;
18623;SDS011;9441;51.420;7.036;2024-02-15T03:01:46;33.27;;;10.97;;
18623;SDS011;9441;51.420;7.036;2024-02-15T03:02:49;31.23;;;10.50;;
18623;SDS011;9441;51.420;7.036;2024-02-15T03:03:50;30.13;;;10.47;;
18623;SDS011;9441;51.420;7.036;2024-02-15T03:04:52;34.13;;;10.17;;
18623;SDS011;9441;51.420;7.036;2024-02-15T03:05:53;36.13;;;11.40;;
18623;SDS011;9441;51.420;7.036;2024-02-15T03:06:55;30.03;;;10.40;;
18623;SDS011;9441;51.420;7.036;2024-02-15T03:07:58;33.73;;;10.20;;
18623;SDS011;9441;51.420;7.036;2024-02-15T03:09:00;30.60;;;10.83;;
18623;SDS011;9441;51.420;7.036;2024-02-15T03:10:01;36.87;;;11.03;;
18623;SDS011;9441;51.420;7.036;2024-02-15T03:11:05;29.30;;;10.30;;
18623;SDS011;9441;51.420;7.036;2024-02-15T03:12:07;24.60;;;10.00;;
18623;SDS011;9441;51.420;7.036;2024-02-15T03:13:09;26.03;;;10.23;;
18623;SDS011;9441;51.420;7.036;2024-02-15T03:14:10;28.80;;;9.63;;
18623;SDS011;9441;51.420;7.036;2024-02-15T03:15:13;31.20;;;10.90;;
18623;SDS011;9441;51.420;7.036;2024-02-15T03:16:14;31.60;;;10.33;;
18623;SDS011;9441;51.420;7.036;2024-02-15T03:17:16;32.00;;;10.23;;
18623;SDS011;9441;51.420;7.036;2024-02-15T03:18:17;30.63;;;9.50;;
18623;SDS011;9441;51.420;7.036;2024-02-15T03:19:19;31.13;;;9.80;;
18623;SDS011;9441;51.420;7.036;2024-02-15T03:20:22;38.53;;;10.20;;
18623;SDS011;9441;51.420;7.036;2024-02-15T03:21:26;32.57;;;10.47;;
18623;SDS011;9441;51.420;7.036;2024-02-15T03:22:27;25.80;;;9.30;;
18623;SDS011;9441;51.420;7.036;2024-02-15T03:23:29;27.20;;;9.80;;
18623;SDS011;9441;51.420;7.036;2024-02-15T03:24:33;30.13;;;10.17;;
18623;SDS011;9441;51.420;7.036;2024-02-15T03:25:34;38.03;;;10.30;;
18623;SDS011;9441;51.420;7.036;2024-02-15T03:26:37;26.90;;;9.67;;
18623;SDS011;9441;51.420;7.036;2024-02-15T03:27:39;36.13;;;9.50;;
18623;SDS011;9441;51.420;7.036;2024-02-15T03:28:41;43.20;;;10.43;;
18623;SDS011;9441;51.420;7.036;2024-02-15T03:29:42;30.13;;;8.87;;
18623;SDS011;9441;51.420;7.036;2024-02-15T03:30:44;30.83;;;9.43;;
18623;SDS011;9441;51.420;7.036;2024-02-15T03:31:46;30.83;;;9.20;;
18623;SDS011;9441;51.420;7.036;2024-02-15T03:32:49;30.07;;;9.83;;
18623;SDS011;9441;51.420;7.036;2024-02-15T03:33:51;26.43;;;8.57;;
18623;SDS011;9441;51.420;7.036;2024-02-15T03:34:54;24.80;;;8.97;;
18623;SDS011;9441;51.420;7.036;2024-02-15T03:35:55;23.43;;;8.80;;
18623;SDS011;9441;51.420;7.036;2024-02-15T03:36:59;32.87;;;9.17;;
18623;SDS011;9441;51.420;7.036;2024-02-15T03:38:03;27.27;;;8.77;;
18623;SDS011;9441;51.420;7.036;2024-02-15T03:39:07;31.90;;;9.50;;
18623;SDS011;9441;51.420;7.036;2024-02-15T03:40:08;27.23;;;9.27;;
18623;SDS011;9441;51.420;7.036;2024-02-15T03:41:11;28.50;;;8.40;;
18623;SDS011;9441;51.420;7.036;2024-02-15T03:42:12;30.87;;;9.13;;
18623;SDS011;9441;51.420;7.036;2024-02-15T03:43:15;26.47;;;9.10;;
18623;SDS011;9441;51.420;7.036;2024-02-15T03:44:16;37.13;;;8.20;;
18623;SDS011;9441;51.420;7.036;2024-02-15T03:45:19;23.07;;;8.27;;
18623;SDS011;9441;51.420;7.036;2024-02-15T03:46:21;25.40;;;9.60;;
18623;SDS011;9441;51.420;7.036;2024-02-15T03:47:24;31.47;;;9.13;;
18623;SDS011;9441;51.420;7.036;2024-02-15T03:48:25;23.67;;;8.90;;
18623;SDS011;9441;51.420;7.036;2024-02-15T03:49:27;27.23;;;8.57;;
18623;SDS011;9441;51.420;7.036;2024-02-15T03:50:28;31.77;;;9.20;;
18623;SDS011;9441;51.420;7.036;2024-02-15T03:51:32;25.33;;;9.23;;
18623;SDS011;9441;51.420;7.036;2024-02-15T03:52:34;28.30;;;9.03;;
18623;SDS011;9441;51.420;7.036;2024-02-15T03:53:36;30.57;;;8.40;;
18623;SDS011;9441;51.420;7.036;2024-02-15T03:54:37;26.87;;;8.60;;
18623;SDS011;9441;51.420;7.036;2024-02-15T03:55:39;29.27;;;8.57;;
18623;SDS011;9441;51.420;7.036;2024-02-15T03:56:46;30.83;;;9.20;;
18623;SDS011;9441;51.420;7.036;2024-02-15T03:57:51;31.47;;;8.53;;
18623;SDS011;9441;51.420;7.036;2024-02-15T03:58:56;26.17;;;8.80;;
18623;SDS011;9441;51.420;7.036;2024-02-15T03:59:59;26.20;;;8.23;;
18623;SDS011;9441;51.420;7.036;2024-02-15T04:01:01;28.23;;;8.87;;
18623;SDS011;9441;51.420;7.036;2024-02-15T04:02:04;28.43;;;9.03;;
18623;SDS011;9441;51.420;7.036;2024-02-15T04:03:08;31.83;;;8.50;;
18623;SDS011;9441;51.420;7.036;2024-02-15T04:04:10;30.33;;;9.07;;
18623;SDS011;9441;51.420;7.036;2024-02-15T04:05:10;22.57;;;8.13;;
18623;SDS011;9441;51.420;7.036;2024-02-15T04:06:12;27.00;;;7.87;;
18623;SDS011;9441;51.420;7.036;2024-02-15T04:07:13;24.63;;;8.67;;
18623;SDS011;9441;51.420;7.036;2024-02-15T04:08:16;26.27;;;8.07;;
18623;SDS011;9441;51.420;7.036;2024-02-15T04:09:19;23.53;;;7.97;;
18623;SDS011;9441;51.420;7.036;2024-02-15T04:10:21;25.73;;;8.50;;
18623;SDS011;9441;51.420;7.036;2024-02-15T04:11:29;30.43;;;8.70;;
18623;SDS011;9441;51.420;7.036;2024-02-15T04:12:33;27.67;;;8.23;;
18623;SDS011;9441;51.420;7.036;2024-02-15T04:13:35;20.37;;;7.77;;
18623;SDS011;9441;51.420;7.036;2024-02-15T04:14:39;23.10;;;7.57;;
18623;SDS011;9441;51.420;7.036;2024-02-15T04:15:40;21.70;;;7.90;;
18623;SDS011;9441;51.420;7.036;2024-02-15T04:16:43;27.47;;;7.40;;
18623;SDS011;9441;51.420;7.036;2024-02-15T04:17:44;31.67;;;8.10;;
18623;SDS011;9441;51.420;7.036;2024-02-15T04:18:47;29.40;;;7.90;;
18623;SDS011;9441;51.420;7.036;2024-02-15T04:19:48;29.40;;;8.27;;
18623;SDS011;9441;51.420;7.036;2024-02-15T04:20:50;24.67;;;7.53;;
18623;SDS011;9441;51.420;7.036;2024-02-15T04:21:51;29.83;;;8.60;;
18623;SDS011;9441;51.420;7.036;2024-02-15T04:22:55;26.03;;;7.53;;
18623;SDS011;9441;51.420;7.036;2024-02-15T04:23:58;27.77;;;8.90;;
18623;SDS011;9441;51.420;7.036;2024-02-15T04:25:00;28.57;;;7.70;;
18623;SDS011;9441;51.420;7.036;2024-02-15T04:26:01;28.53;;;8.47;;
18623;SDS011;9441;51.420;7.036;2024-02-15T04:27:02;21.63;;;7.33;;
18623;SDS011;9441;51.420;7.036;2024-02-15T04:28:04;23.07;;;7.80;;
18623;SDS011;9441;51.420;7.036;2024-02-15T04:29:06;21.97;;;7.87;;
18623;SDS011;9441;51.420;7.036;2024-02-15T04:30:10;25.10;;;8.60;;
18623;SDS011;9441;51.420;7.036;2024-02-15T04:31:12;30.07;;;7.60;;
18623;SDS011;9441;51.420;7.036;2024-02-15T04:32:14;21.97;;;7.53;;
18623;SDS011;9441;51.420;7.036;2024-02-15T04:33:16;26.17;;;8.00;;
18623;SDS011;9441;51.420;7.036;2024-02-15T04:34:18;22.97;;;7.77;;
18623;SDS011;9441;51.420;7.036;2024-02-15T04:35:19;20.97;;;7.43;;
18623;SDS011;9441;51.420;7.036;2024-02-15T04:36:22;28.60;;;7.37;;
18623;SDS011;9441;51.420;7.036;2024-02-15T04:37:24;24.10;;;7.90;;
18623;SDS011;9441;51.420;7.036;2024-02-15T04:38:29;25.67;;;7.30;;
18623;SDS011;9441;51.420;7.036;2024-02-15T04:39:30;25.93;;;7.53;;
18623;SDS011;9441;51.420;7.036;2024-02-15T04:40:32;33.63;;;7.40;;
18623;SDS011;9441;51.420;7.036;2024-02-15T04:41:33;23.60;;;6.97;;
18623;SDS011;9441;51.420;7.036;2024-02-15T04:42:34;22.47;;;6.80;;
18623;SDS011;9441;51.420;7.036;2024-02-15T04:43:38;22.60;;;7.17;;
18623;SDS011;9441;51.420;7.036;2024-02-15T04:44:41;21.80;;;6.80;;
18623;SDS011;9441;51.420;7.036;2024-02-15T04:45:44;24.67;;;7.17;;
18623;SDS011;9441;51.420;7.036;2024-02-15T04:46:46;26.47;;;7.40;;
18623;SDS011;9441;51.420;7.036;2024-02-15T04:47:49;24.47;;;7.40;;
18623;SDS011;9441;51.420;7.036;2024-02-15T04:48:52;23.00;;;7.00;;
18623;SDS011;9441;51.420;7.036;2024-02-15T04:49:56;27.70;;;7.40;;
18623;SDS011;9441;51.420;7.036;2024-02-15T04:50:57;20.63;;;6.43;;
18623;SDS011;9441;51.420;7.036;2024-02-15T04:51:59;16.90;;;6.30;;
18623;SDS011;9441;51.420;7.036;2024-02-15T04:53:03;15.17;;;6.23;;
18623;SDS011;9441;51.420;7.036;2024-02-15T04:54:05;17.33;;;5.97;;
18623;SDS011;9441;51.420;7.036;2024-02-15T04:55:08;18.30;;;6.00;;
18623;SDS011;9441;51.420;7.036;2024-02-15T04:56:08;19.43;;;6.47;;
18623;SDS011;9441;51.420;7.036;2024-02-15T04:57:13;20.57;;;6.60;;
18623;SDS011;9441;51.420;7.036;2024-02-15T04:58:14;13.83;;;6.00;;
18623;SDS011;9441;51.420;7.036;2024-02-15T04:59:16;22.03;;;6.60;;
18623;SDS011;9441;51.420;7.036;2024-02-15T05:00:18;22.30;;;6.10;;
18623;SDS011;9441;51.420;7.036;2024-02-15T05:01:22;35.10;;;6.50;;
18623;SDS011;9441;51.420;7.036;2024-02-15T05:02:24;20.40;;;5.90;;
18623;SDS011;9441;51.420;7.036;2024-02-15T05:03:25;18.33;;;6.60;;
18623;SDS011;9441;51.420;7.036;2024-02-15T05:04:26;20.27;;;6.33;;
18623;SDS011;9441;51.420;7.036;2024-02-15T05:05:28;20.17;;;6.27;;
18623;SDS011;9441;51.420;7.036;2024-02-15T05:06:29;21.73;;;6.23;;
18623;SDS011;9441;51.420;7.036;2024-02-15T05:07:32;18.90;;;5.83;;
18623;SDS011;9441;51.420;7.036;2024-02-15T05:08:33;22.23;;;7.27;;
18623;SDS011;9441;51.420;7.036;2024-02-15T05:09:36;16.97;;;5.33;;
18623;SDS011;9441;51.420;7.036;2024-02-15T05:10:37;20.73;;;6.07;;
18623;SDS011;9441;51.420;7.036;2024-02-15T05:11:40;26.40;;;6.30;;
18623;SDS011;9441;51.420;7.036;2024-02-15T05:12:41;17.10;;;5.50;;
18623;SDS011;9441;51.420;7.036;2024-02-15T05:13:44;13.53;;;5.00;;
18623;SDS011;9441;51.420;7.036;2024-02-15T05:14:45;20.40;;;5.60;;
18623;SDS011;9441;51.420;7.036;2024-02-15T05:15:47;18.50;;;5.60;;
18623;SDS011;9441;51.420;7.036;2024-02-15T05:16:49;15.30;;;6.00;;
18623;SDS011;9441;51.420;7.036;2024-02-15T05:17:51;24.53;;;5.93;;
18623;SDS011;9441;51.420;7.036;2024-02-15T05:18:54;19.73;;;5.23;;
18623;SDS011;9441;51.420;7.036;2024-02-15T05:19:55;28.47;;;5.80;;
18623;SDS011;9441;51.420;7.036;2024-02-15T05:20:59;23.83;;;5.60;;
18623;SDS011;9441;51.420;7.036;2024-02-15T05:22:01;22.67;;;5.63;;
18623;SDS011;9441;51.420;7.036;2024-02-15T05:23:05;17.80;;;5.37;;
18623;SDS011;9441;51.420;7.036;2024-02-15T05:24:06;23.77;;;5.70;;
18623;SDS011;9441;51.420;7.036;2024-02-15T05:25:08;17.37;;;5.20;;
18623;SDS011;9441;51.420;7.036;2024-02-15T05:26:10;14.43;;;5.23;;
18623;SDS011;9441;51.420;7.036;2024-02-15T05:27:15;18.93;;;5.63;;
18623;SDS011;9441;51.420;7.036;2024-02-15T05:28:16;19.23;;;5.50;;
18623;SDS011;9441;51.420;7.036;2024-02-15T05:29:19;22.00;;;5.23;;
18623;SDS011;9441;51.420;7.036;2024-02-15T05:30:21;21.60;;;5.50;;
18623;SDS011;9441;51.420;7.036;2024-02-15T05:31:22;16.47;;;5.10;;
18623;SDS011;9441;51.420;7.036;2024-02-15T05:32:27;11.20;;;5.10;;
18623;SDS011;9441;51.420;7.036;2024-02-15T05:33:28;18.53;;;5.17;;
18623;SDS011;9441;51.420;7.036;2024-02-15T05:34:33;18.17;;;5.10;;
18623;SDS011;9441;51.420;7.036;2024-02-15T05:35:39;14.57;;;4.80;;
18623;SDS011;9441;51.420;7.036;2024-02-15T05:36:43;15.33;;;4.83;;
18623;SDS011;9441;51.420;7.036;2024-02-15T05:37:44;15.30;;;4.43;;
18623;SDS011;9441;51.420;7.036;2024-02-15T05:38:47;10.53;;;4.60;;
18623;SDS011;9441;51.420;7.036;2024-02-15T05:39:49;9.63;;;4.33;;
18623;SDS011;9441;51.420;7.036;2024-02-15T05:40:54;12.90;;;4.60;;
18623;SDS011;9441;51.420;7.036;2024-02-15T05:41:55;11.20;;;4.17;;
18623;SDS011;9441;51.420;7.036;2024-02-15T05:43:00;10.37;;;4.40;;
18623;SDS011;9441;51.420;7.036;2024-02-15T05:44:02;15.93;;;4.90;;
18623;SDS011;9441;51.420;7.036;2024-02-15T05:46:39;10.83;;;4.50;;
18623;SDS011;9441;51.420;7.036;2024-02-15T05:47:43;18.17;;;4.90;;
18623;SDS011;9441;51.420;7.036;2024-02-15T05:48:44;18.83;;;4.80;;
18623;SDS011;9441;51.420;7.036;2024-02-15T05:49:46;15.23;;;4.60;;
18623;SDS011;9441;51.420;7.036;2024-02-15T05:50:47;16.57;;;4.47;;
18623;SDS011;9441;51.420;7.036;2024-02-15T05:51:49;16.77;;;5.10;;
18623;SDS011;9441;51.420;7.036;2024-02-15T05:52:50;11.80;;;4.60;;
18623;SDS011;9441;51.420;7.036;2024-02-15T05:53:53;19.30;;;4.40;;
18623;SDS011;9441;51.420;7.036;2024-02-15T05:54:58;11.10;;;4.40;;
18623;SDS011;9441;51.420;7.036;2024-02-15T05:56:01;14.23;;;4.13;;
18623;SDS011;9441;51.420;7.036;2024-02-15T05:57:04;14.03;;;4.60;;
18623;SDS011;9441;51.420;7.036;2024-02-15T05:58:06;12.27;;;4.23;;
18623;SDS011;9441;51.420;7.036;2024-02-15T05:59:09;13.70;;;4.70;;
18623;SDS011;9441;51.420;7.036;2024-02-15T06:00:12;14.53;;;3.83;;
18623;SDS011;9441;51.420;7.036;2024-02-15T06:01:15;15.23;;;4.53;;
18623;SDS011;9441;51.420;7.036;2024-02-15T06:02:17;13.40;;;4.33;;
18623;SDS011;9441;51.420;7.036;2024-02-15T06:03:19;15.80;;;4.97;;
18623;SDS011;9441;51.420;7.036;2024-02-15T06:04:23;10.67;;;4.23;;
18623;SDS011;9441;51.420;7.036;2024-02-15T06:05:25;12.10;;;4.50;;
18623;SDS011;9441;51.420;7.036;2024-02-15T06:06:27;12.80;;;4.47;;
18623;SDS011;9441;51.420;7.036;2024-02-15T06:07:28;10.63;;;4.90;;
18623;SDS011;9441;51.420;7.036;2024-02-15T06:08:31;16.60;;;5.00;;
18623;SDS011;9441;51.420;7.036;2024-02-15T06:09:33;15.93;;;4.67;;
18623;SDS011;9441;51.420;7.036;2024-02-15T06:10:37;15.57;;;5.00;;
18623;SDS011;9441;51.420;7.036;2024-02-15T06:11:38;11.67;;;5.00;;
18623;SDS011;9441;51.420;7.036;2024-02-15T06:12:40;17.27;;;5.00;;
18623;SDS011;9441;51.420;7.036;2024-02-15T06:13:42;15.17;;;5.37;;
18623;SDS011;9441;51.420;7.036;2024-02-15T06:14:46;15.47;;;5.27;;
18623;SDS011;9441;51.420;7.036;2024-02-15T06:15:47;16.30;;;5.57;;